WEATHER DATA

YESTERDAY
Time Temp. Dewp. Hum. Wind dir Wind speed Wind gust Bar. 1h Prec. 24h Prec.
00:01 17.8 16.7 93 321 0.8 1.7 1009.2 0.0000 0.0000
00:12 17.7 16.6 93 320 0.8 1.4 1009.2 0.0000 0.0000
00:22 17.7 16.6 93 312 1.1 1.9 1009.2 0.0000 0.0000
00:31 17.6 16.5 93 311 0.8 1.4 1009.1 0.0000 0.0000
00:41 17.6 16.5 93 308 0.8 1.7 1009.2 0.0000 0.0000
00:52 17.6 16.5 93 296 0.8 1.4 1009.2 0.0000 0.0000
01:02 17.5 16.4 93 309 0.8 1.7 1009.1 0.0000 0.0000
01:12 17.5 16.5 94 310 1.1 1.9 1009.1 0.0000 0.0000
01:23 17.5 16.5 94 315 1.1 1.7 1009 0.0000 0.0000
01:32 17.5 16.5 94 315 0.8 1.7 1008.9 0.0000 0.0000
01:42 17.5 16.5 94 311 0.8 1.4 1008.8 0.0000 0.0000
01:52 17.5 16.5 94 311 0.8 1.7 1008.7 0.0000 0.0000
02:03 17.5 16.5 94 309 1.1 1.9 1008.7 0.0000 0.0000
02:13 17.4 16.4 94 289 0.6 1.4 1008.7 0.0000 0.0000
02:23 17.4 16.4 94 270 0.6 1.1 1008.6 0.0000 0.0000
02:33 17.4 16.4 94 310 0.8 1.4 1008.5 0.1010 0.1000
02:39 17.4 16.4 94 307 0.8 1.7 1008.5 0.3030 0.3000
02:48 17.4 16.4 94 310 1.4 1.9 1008.4 1.0100 1.0000
02:58 17.4 16.4 94 310 1.4 2.5 1008.4 2.2220 2.2000
03:12 17.3 16.5 95 320 2.2 5.6 1008.2 5.2520 5.3000
03:22 17 15.9 93 324 3.6 5.3 1008.2 6.5650 6.6000
03:32 16.7 15.6 93 318 3.1 5 1008.2 7.0700 7.2000
03:43 16.5 15.5 94 322 2.5 5 1008.1 6.7670 7.3000
03:52 16.3 15.2 93 327 3.3 5.8 1008.1 5.7570 7.4000
04:02 16.1 15 93 326 3.3 5.6 1008 4.1410 7.5000
04:13 16 15 94 328 3.3 5.6 1007.9 1.5150 7.7000
04:23 15.9 14.9 94 333 2.5 4.7 1007.9 0.9090 7.8000
04:33 15.8 14.8 94 340 2.5 4.4 1007.8 0.8080 8.0000
04:43 15.6 14.8 95 336 2.5 4.2 1007.7 0.7070 8.1000
04:53 15.5 14.7 95 332 2.8 4.7 1007.7 0.9090 8.4000
05:03 15.4 14.4 94 338 3.6 6.4 1007.7 1.0100 8.6000
05:13 15.3 14.5 95 338 2.5 5.6 1007.7 1.1110 8.9000
05:23 15.2 14.4 95 336 2.5 4.7 1007.6 1.2120 9.0000
05:34 15.1 14.3 95 331 2.5 5.3 1007.7 1.1110 9.1000
05:43 15 14.2 95 339 2.2 4.2 1007.6 1.2120 9.3000
05:53 15 14.4 96 334 2.5 5.6 1007.7 1.1110 9.5000
06:04 14.9 14.3 96 334 2.8 5 1007.7 1.2120 9.8000
06:14 14.9 14.3 96 336 2.2 4.2 1007.8 1.1110 10.0000
06:24 14.9 14.3 96 337 2.2 3.6 1007.8 1.3130 10.3000
06:34 14.7 13.9 95 343 2.5 5.6 1007.9 1.3130 10.4000
06:44 14.5 13.2 92 347 3.1 5.3 1007.9 1.3130 10.6000
06:54 14.3 13.2 93 335 2.5 5 1008.1 1.4140 10.9000
07:04 14.1 13.1 94 337 1.9 4.2 1008.2 1.4140 11.2000
07:15 14 13.1 94 332 2.2 3.9 1008.2 1.6160 11.6000
07:25 13.9 13.1 95 332 2.2 4.2 1008.3 1.9190 12.2000
07:34 13.9 13.1 95 331 1.1 2.8 1008.4 2.4240 12.8000
07:44 13.9 13.1 95 328 1.7 3.1 1008.5 2.7270 13.3000
07:55 13.8 13 95 328 1.9 5.6 1008.6 2.8280 13.7000
08:05 13.8 13 95 331 1.9 3.6 1008.6 2.8280 14.0000
08:15 13.8 13 95 331 1.7 3.9 1008.6 2.6260 14.2000
08:25 13.8 13 95 336 1.4 3.1 1008.6 2.3230 14.5000
08:35 13.8 13 95 332 1.9 3.6 1008.6 1.8180 14.6000
08:45 13.8 13 95 326 2.2 4.2 1008.6 1.4140 14.7000
08:55 13.8 13 95 334 1.9 3.6 1008.6 1.2120 14.9000
09:06 13.7 12.8 94 335 1.7 3.1 1008.6 1.0100 15.0000
09:16 13.7 12.8 94 338 1.4 2.5 1008.6 1.0100 15.3000
09:25 13.8 12.9 94 341 0.8 1.7 1008.6 0.8080 15.4000
09:36 13.8 13 95 7 0.6 1.1 1008.7 1.0100 15.7000
09:46 13.9 13.1 95 355 0.6 1.1 1008.8 1.0100 15.8000
09:56 14 13.1 94 338 0.8 1.7 1008.8 1.0100 16.0000
10:06 14 13.1 94 0 0.6 1.1 1008.9 1.0100 16.1000
10:16 14.1 13.1 94 1 0.6 1.4 1008.9 0.8080 16.1000
10:26 14.2 13.2 94 350 0.6 1.7 1008.9 0.8080 16.2000
10:36 14.2 13.1 93 358 0.6 1.1 1009 0.6060 16.3000
10:46 14.3 13.2 93 270 0.6 1.1 1009 0.6060 16.4000
10:57 14.3 13.3 94 225 0.3 0.8 1009 0.4040 16.4000
11:06 14.4 13.4 94 236 0.6 1.1 1009 0.3030 16.4000
11:16 14.6 13.6 94 210 0.3 0.8 1008.9 0.3030 16.4000
11:27 14.9 13.9 94 270 0.8 1.9 1008.9 0.2020 16.4000
11:37 15 14 94 280 0.8 1.7 1008.8 0.1010 16.4000
11:47 15.2 14.2 94 315 0.6 1.4 1008.8 0.0000 16.4000
11:57 15.4 14.3 93 287 0.8 1.7 1008.8 0.0000 16.4000
12:07 15.6 14.5 93 318 0.6 1.7 1008.8 0.0000 16.4000
12:17 15.8 14.5 92 270 0.8 1.7 1008.6 0.0000 16.4000
12:27 16 14.5 91 270 0.8 1.9 1008.6 0.0000 16.4000
12:38 16.3 14.7 90 307 1.4 2.8 1008.5 0.0000 16.4000
12:48 16.4 14.6 89 320 1.1 2.5 1008.4 0.0000 16.4000
12:57 16.6 14.6 88 324 1.7 3.6 1008.4 0.0000 16.4000
13:07 16.7 14.5 87 324 1.9 4.4 1008.5 0.0000 16.4000
13:18 16.7 14.3 86 315 1.4 3.1 1008.4 0.0000 16.4000
13:28 16.6 14.3 86 319 1.7 3.9 1008.3 0.0000 16.4000
13:38 16.7 14.3 86 315 1.4 3.6 1008.3 0.0000 16.4000
13:48 17.1 15.1 88 297 1.1 2.2 1008.2 0.0000 16.4000
13:58 17.4 14.9 85 310 1.9 4.2 1008.2 0.0000 16.4000
14:08 17.5 14.8 84 299 1.1 3.3 1008.2 0.0000 16.4000
14:18 17.4 14.7 84 303 0.8 1.9 1008.3 0.0000 16.4000
14:29 17.4 14.9 85 270 0.6 1.4 1008.2 0.0000 16.4000
14:40 17.2 14.5 84 315 1.7 6.1 1008.4 0.0000 16.4000
14:50 16.8 14.3 85 315 1.7 5 1008.4 0.0000 16.4000
15:00 16.7 14.3 86 316 1.7 2.8 1008.4 0.0000 16.4000
15:10 16.7 14.3 86 311 1.4 3.6 1008.3 0.0000 16.4000
15:20 16.9 14.5 86 318 1.9 3.9 1008.2 0.0000 16.4000
15:30 17.2 14.7 85 314 1.7 4.4 1008.1 0.0000 16.4000
15:40 17.4 14.3 82 316 2.5 4.7 1008.2 0.0000 16.4000
15:51 17.4 14.3 82 316 1.7 4.2 1008.1 0.0000 16.4000
16:01 17.4 14.3 82 320 1.9 4.2 1008 0.0000 16.4000
16:10 17.5 14.4 82 322 1.7 5.6 1008.1 0.0000 16.4000
16:21 17.4 14.1 81 322 1.9 3.6 1008 0.0000 16.4000
16:31 17.5 14 80 326 2.2 4.2 1007.9 0.0000 16.4000
16:41 17.3 13.4 78 317 1.9 4.4 1008 0.0000 16.4000
16:51 17.1 13.4 79 319 1.9 3.9 1007.9 0.0000 16.4000
17:01 17 13.5 80 315 1.7 3.6 1008 0.0000 16.4000
17:11 16.9 13.6 81 320 1.7 3.9 1008 0.0000 16.4000
17:21 16.7 13.6 82 316 1.7 3.6 1008 0.0000 16.4000
17:31 16.8 13.7 82 317 1.9 3.6 1008.1 0.0000 16.4000
17:42 16.7 13.4 81 315 2.2 4.7 1008.1 0.0000 16.4000
17:51 16.5 13.6 83 304 1.1 2.5 1008.2 0.0000 16.4000
18:01 16.2 13.1 82 320 2.8 5.6 1008.5 0.2020 16.6000
18:12 15.8 12.7 82 327 2.5 4.7 1008.4 0.2020 16.6000
18:22 15.4 12.5 83 315 1.4 3.1 1008.4 0.2020 16.6000
18:32 15.1 12.4 84 315 1.1 2.2 1008.5 0.2020 16.6000
18:42 14.9 12.6 86 302 0.8 1.9 1008.5 0.2020 16.6000
18:52 14.8 12.7 87 255 0.6 1.1 1008.5 0.0000 16.6000
19:02 14.6 12.5 87 285 0.6 1.4 1008.5 0.0000 16.6000
19:12 14.6 12.6 88 302 1.1 2.8 1008.5 0.0000 16.6000
19:23 14.5 12.5 88 280 1.1 2.5 1008.6 0.0000 16.6000
19:33 14.5 12.7 89 315 1.4 2.8 1008.7 0.0000 16.6000
19:42 14.5 12.7 89 310 1.4 3.1 1008.6 0.0000 16.6000
19:52 14.5 12.7 89 316 1.7 3.3 1008.6 0.0000 16.6000
20:03 14.5 12.7 89 316 1.7 3.9 1008.7 0.0000 16.6000
20:13 14.4 12.4 88 318 2.2 4.4 1008.8 0.0000 16.6000
20:23 14.3 12.3 88 319 2.5 4.7 1008.8 0.0000 16.6000
20:33 14.3 12.3 88 316 1.9 5 1008.8 0.0000 16.6000
20:43 14.2 12.2 88 317 2.2 3.6 1008.9 0.0000 16.6000
20:53 14.1 12.1 88 313 1.7 4.7 1009 0.0000 16.6000
21:03 14 12.2 89 312 1.4 3.9 1009 0.0000 16.6000
21:14 14 12.2 89 314 1.7 2.5 1009.1 0.0000 16.6000
21:23 14 12.2 89 304 1.1 2.5 1009.1 0.0000 16.6000
21:38 13.9 12.3 90 290 0.8 1.7 1009 0.0000 16.6000
21:49 13.9 12.3 90 289 0.8 2.5 1009.1 0.0000 16.6000
21:59 13.9 12.3 90 293 1.1 2.5 1009.1 0.0000 16.6000
22:09 13.9 12.3 90 297 1.1 3.1 1009.1 0.0000 16.6000
22:19 13.9 12.3 90 291 1.4 3.1 1009 0.0000 16.6000
22:29 13.9 12.3 90 282 1.1 1.9 1009 0.0000 16.6000
22:39 13.8 12.2 90 285 1.1 3.1 1009 0.0000 16.6000
22:49 13.7 12.1 90 292 1.4 2.8 1009 0.0000 16.6000
23:00 13.7 12.3 91 288 1.4 2.8 1009 0.0000 16.6000
23:10 13.7 12.3 91 285 1.7 3.1 1009 0.0000 16.6000
23:19 13.6 12.2 91 295 1.7 3.3 1009 0.0000 16.6000
23:30 13.6 12.2 91 302 1.7 4.2 1009 0.0000 16.6000
23:40 13.6 12.2 91 290 1.7 2.8 1009 0.0000 16.6000
23:50 13.5 12.1 91 297 2.2 4.7 1009 0.0000 16.6000

DAY STATISTIC

2021-09-17
TEMPERATURE
AVERAGE
15.5
HIGH
17.8
00:01
LOW
13.5
23:50
PRESSURE
AVERAGE
1008.5
HIGH
1009.2
00:01
LOW
1007.6
05:23
DEWPOINT
AVERAGE
13.9
HIGH
16.7
00:01
LOW
12.1
20:53
HUMIDITY
AVERAGE
90
HIGH
96
05:53
LOW
78
16:41
WIND SPEED
AVERAGE
1.6
HIGH
3.6
03:22
WIND GUST
AVERAGE
3.2
HIGH
6.4
05:03
WIND DIRECTION
PREVAILING
NW
72.5%
N
10.6
NE
0.0
E
0.0
SE
0.0
S
0.0
SW
2.1
W
14.8
NW
72.5
PRECIPITATION
RAIN HOUR
7.1
RAIN DAY
16.6
TEMPERATURE (°C)
LOW
13.5
HIGH
17.8
AVERAGE
15.5
PRESSURE (hpa)
LOW
1007.6
HIGH
1009.2
AVERAGE
1008.5
DEVICE